Time;durP1;ratioP1;P1;durP2;ratioP2;P2;SDS_P1;SDS_P2;PMS_P1;PMS_P2;Temp;Humidity;BMP_temperature;BMP_pressure;BME280_temperature;BME280_humidity;BME280_pressure;Samples;Min_cycle;Max_cycle;Signal;HPM_P1;HPM_P2
2023/03/29 00:00:48;;;;;;;10.27;8.95;;;;;;;4.08;100.00;161634.06;5071335;28;20411;-62
2023/03/29 00:03:13;;;;;;;15.50;9.98;;;;;;;4.09;100.00;161638.09;5073438;28;20047;-61
2023/03/29 00:05:40;;;;;;;13.07;11.00;;;;;;;4.05;100.00;161627.38;5071874;28;20036;-61
2023/03/29 00:08:06;;;;;;;14.05;11.13;;;;;;;4.08;100.00;161635.41;5072734;28;20074;-60
2023/03/29 00:10:32;;;;;;;10.65;9.52;;;;;;;4.07;100.00;161632.69;5071548;28;20047;-60
2023/03/29 00:12:57;;;;;;;16.10;11.10;;;;;;;4.12;100.00;161646.19;5073073;28;20081;-61
2023/03/29 00:15:24;;;;;;;22.77;13.07;;;;;;;3.98;100.00;161608.53;5071611;28;20040;-60
2023/03/29 00:17:50;;;;;;;15.95;10.23;;;;;;;4.06;100.00;161630.00;5072443;28;20109;-60
2023/03/29 00:20:16;;;;;;;14.88;11.13;;;;;;;3.99;100.00;161611.19;5071565;28;20048;-59
2023/03/29 00:22:41;;;;;;;18.95;11.73;;;;;;;4.13;100.00;161648.81;5073137;28;20129;-59
2023/03/29 00:25:08;;;;;;;17.20;11.50;;;;;;;4.15;100.00;161652.88;5070867;28;20090;-59
2023/03/29 00:27:34;;;;;;;12.60;11.23;;;;;;;4.17;100.00;161658.22;5073129;28;20063;-60
2023/03/29 00:30:02;;;;;;;18.13;11.82;;;;;;;4.18;100.00;161659.59;5070861;28;20045;-60
2023/03/29 00:32:28;;;;;;;17.90;12.70;;;;;;;4.19;100.00;161663.63;5072454;28;20390;-60
2023/03/29 00:34:55;;;;;;;16.98;12.55;;;;;;;4.15;100.00;161651.50;5070962;28;20048;-60
2023/03/29 00:37:25;;;;;;;20.23;11.50;;;;;;;4.18;100.00;161660.94;5072755;28;20432;-60
2023/03/29 00:39:51;;;;;;;19.15;11.70;;;;;;;4.23;100.00;161673.03;5070640;28;20412;-60
2023/03/29 00:42:17;;;;;;;20.98;13.38;;;;;;;4.23;100.00;161673.03;5072754;28;20028;-61
2023/03/29 00:45:04;;;;;;;17.88;12.98;;;;;;;4.22;100.00;161670.34;5071281;28;20055;-61
2023/03/29 00:47:40;;;;;;;16.15;10.73;;;;;;;4.19;100.00;161662.31;5072558;28;20036;-61
2023/03/29 00:50:25;;;;;;;26.52;15.85;;;;;;;4.22;100.00;161670.34;5070519;28;20036;-61
2023/03/29 00:52:57;;;;;;;18.38;13.50;;;;;;;4.26;100.00;161681.13;5072066;28;20078;-60
2023/03/29 00:55:25;;;;;;;16.15;12.13;;;;;;;4.25;100.00;161679.75;5071097;28;20051;-60
2023/03/29 00:57:52;;;;;;;18.88;12.48;;;;;;;4.23;100.00;161674.41;5072035;28;20020;-61
2023/03/29 01:00:21;;;;;;;16.77;12.63;;;;;;;4.23;100.00;161673.03;5070512;28;20132;-60
2023/03/29 01:02:52;;;;;;;20.90;13.65;;;;;;;4.23;100.00;161673.03;5072145;28;20074;-60
2023/03/29 01:05:28;;;;;;;18.35;11.70;;;;;;;4.28;100.00;161686.50;5070139;28;20048;-61
2023/03/29 01:08:17;;;;;;;17.73;13.90;;;;;;;4.07;100.00;161632.69;5071286;28;20017;-61
2023/03/29 01:11:21;;;;;;;24.30;14.55;;;;;;;4.29;100.00;161689.16;5070435;28;20055;-61
2023/03/29 01:14:11;;;;;;;25.30;14.27;;;;;;;4.28;100.00;161686.50;5071666;28;20017;-60
2023/03/29 01:16:37;;;;;;;16.90;11.50;;;;;;;4.36;100.00;161707.97;5070296;28;20044;-60
2023/03/29 01:19:06;;;;;;;17.45;14.02;;;;;;;4.23;100.00;161674.41;5071292;28;20052;-60
2023/03/29 01:21:48;;;;;;;16.67;12.13;;;;;;;4.30;100.00;161691.84;5070353;28;20060;-61
2023/03/29 01:24:34;;;;;;;20.27;13.13;;;;;;;4.33;100.00;161699.94;5070077;28;20012;-61
2023/03/29 01:27:10;;;;;;;14.70;11.95;;;;;;;4.34;100.00;161702.63;5071763;28;20052;-61
2023/03/29 01:29:44;;;;;;;18.42;11.77;;;;;;;4.34;100.00;161702.63;5069825;28;20123;-60
2023/03/29 01:32:18;;;;;;;21.48;14.90;;;;;;;4.31;100.00;161694.53;5071794;28;20020;-61
2023/03/29 01:35:21;;;;;;;12.15;10.45;;;;;;;4.28;100.00;161687.81;5069933;28;20044;-61
2023/03/29 01:37:57;;;;;;;14.32;12.07;;;;;;;4.29;100.00;161689.16;5070027;28;20395;-61
2023/03/29 01:40:25;;;;;;;23.05;13.75;;;;;;;4.27;100.00;161683.81;5069996;28;20048;-61
2023/03/29 01:43:08;;;;;;;14.07;12.48;;;;;;;4.25;100.00;161679.75;5071392;28;20016;-61
2023/03/29 01:45:49;;;;;;;18.50;12.90;;;;;;;4.13;100.00;161648.81;5069366;28;20066;-62
2023/03/29 01:48:35;;;;;;;18.63;13.10;;;;;;;4.28;100.00;161686.50;5071400;28;20032;-62
2023/03/29 01:51:08;;;;;;;18.17;14.48;;;;;;;4.28;100.00;161686.50;5069556;28;20043;-62
2023/03/29 01:53:45;;;;;;;15.68;14.02;;;;;;;4.30;100.00;161691.84;5070936;28;20020;-62
2023/03/29 01:56:15;;;;;;;19.38;14.85;;;;;;;4.28;100.00;161686.50;5069841;28;20068;-62
2023/03/29 01:58:45;;;;;;;21.80;13.73;;;;;;;4.31;100.00;161694.53;5071109;28;20021;-61
2023/03/29 02:01:16;;;;;;;17.45;12.30;;;;;;;4.29;100.00;161690.53;5069297;28;20041;-63
2023/03/29 02:03:48;;;;;;;16.55;13.15;;;;;;;4.33;100.00;161699.94;5071193;28;20043;-63
2023/03/29 02:06:17;;;;;;;15.80;12.85;;;;;;;4.31;100.00;161694.53;5069761;28;20048;-62
2023/03/29 02:08:44;;;;;;;18.92;16.92;;;;;;;4.27;100.00;161685.13;5069654;28;20036;-62
2023/03/29 02:11:09;;;;;;;23.42;13.10;;;;;;;4.32;100.00;161697.22;5069482;28;20040;-63
2023/03/29 02:13:35;;;;;;;18.17;12.07;;;;;;;4.34;100.00;161702.63;5070825;28;20025;-64
2023/03/29 02:16:03;;;;;;;16.10;13.90;;;;;;;4.11;100.00;161642.09;5068748;28;20059;-64
2023/03/29 02:18:29;;;;;;;22.17;14.18;;;;;;;4.25;100.00;161678.41;5069313;28;20105;-64
2023/03/29 02:20:57;;;;;;;19.60;15.35;;;;;;;4.38;100.00;161713.34;5069211;28;20032;-63
2023/03/29 02:23:45;;;;;;;27.05;16.95;;;;;;;4.39;100.00;161716.06;5070462;28;20024;-63
2023/03/29 02:26:13;;;;;;;26.65;17.02;;;;;;;4.37;100.00;161710.66;5069374;28;20101;-62
2023/03/29 02:28:40;;;;;;;20.00;13.77;;;;;;;4.36;100.00;161706.66;5070302;28;20020;-63
2023/03/29 02:31:18;;;;;;;20.40;14.70;;;;;;;4.40;100.00;161717.38;5068856;28;20037;-65
2023/03/29 02:34:01;;;;;;;20.67;15.70;;;;;;;4.43;100.00;161725.47;5070588;28;20502;-65
2023/03/29 02:36:37;;;;;;;20.67;15.32;;;;;;;4.29;100.00;161689.16;5068903;28;20059;-64
2023/03/29 02:39:04;;;;;;;19.88;14.60;;;;;;;4.39;100.00;161714.72;5070220;28;20036;-64
2023/03/29 02:41:31;;;;;;;23.17;15.63;;;;;;;4.45;100.00;161730.84;5069406;28;20045;-64
2023/03/29 02:43:59;;;;;;;24.55;14.77;;;;;;;4.45;100.00;161730.84;5069694;28;20025;-61
2023/03/29 02:46:25;;;;;;;19.73;13.88;;;;;;;4.42;100.00;161724.13;5069162;28;20060;-61
2023/03/29 02:48:53;;;;;;;19.83;14.90;;;;;;;4.48;100.00;161738.88;5070160;28;20017;-62
2023/03/29 02:51:23;;;;;;;18.70;15.75;;;;;;;4.48;100.00;161738.88;5068403;28;20465;-61
2023/03/29 02:53:53;;;;;;;20.48;14.95;;;;;;;4.49;100.00;161740.25;5070312;28;20063;-62
2023/03/29 02:56:19;;;;;;;18.38;15.45;;;;;;;4.52;100.00;161749.66;5069096;28;20052;-62
2023/03/29 02:58:44;;;;;;;18.17;15.07;;;;;;;4.51;100.00;161746.97;5069635;28;20036;-62
2023/03/29 03:01:10;;;;;;;20.08;15.73;;;;;;;4.51;100.00;161746.97;5068844;28;20044;-62
2023/03/29 03:03:36;;;;;;;18.83;15.82;;;;;;;4.52;100.00;161748.31;5070403;28;20024;-61
2023/03/29 03:06:01;;;;;;;19.30;15.55;;;;;;;4.56;100.00;161759.09;5068164;28;20041;-61
2023/03/29 03:08:27;;;;;;;18.17;13.55;;;;;;;4.57;100.00;161761.78;5070229;28;20112;-61
2023/03/29 03:10:53;;;;;;;19.38;16.35;;;;;;;4.53;100.00;161751.00;5068386;28;20102;-62
2023/03/29 03:13:18;;;;;;;17.35;13.80;;;;;;;4.57;100.00;161761.78;5069996;28;20024;-62
2023/03/29 03:15:47;;;;;;;17.42;13.15;;;;;;;4.57;100.00;161761.78;5068451;28;20063;-62
2023/03/29 03:18:13;;;;;;;16.58;13.10;;;;;;;4.58;100.00;161765.81;5069963;28;20033;-62
2023/03/29 03:20:39;;;;;;;20.75;15.77;;;;;;;4.60;100.00;161771.19;5068218;28;20048;-61
2023/03/29 03:23:05;;;;;;;17.40;13.45;;;;;;;4.65;100.00;161783.28;5070023;28;20025;-62
2023/03/29 03:25:31;;;;;;;28.90;17.08;;;;;;;4.62;100.00;161773.88;5068743;28;20033;-62
2023/03/29 03:27:56;;;;;;;26.08;16.45;;;;;;;4.64;100.00;161780.59;5069565;28;20020;-61
2023/03/29 03:30:22;;;;;;;18.25;14.68;;;;;;;4.68;100.00;161790.00;5071583;28;20118;-63
2023/03/29 03:32:48;;;;;;;20.48;14.68;;;;;;;4.69;100.00;161794.03;5071043;28;20395;-61
2023/03/29 03:35:14;;;;;;;16.75;14.98;;;;;;;4.68;100.00;161791.34;5071256;28;20099;-58
2023/03/29 03:37:39;;;;;;;18.35;13.15;;;;;;;4.71;100.00;161798.06;5073800;28;20020;-57
2023/03/29 03:40:10;;;;;;;15.75;13.23;;;;;;;4.73;100.00;161804.75;5067764;28;20037;-57
2023/03/29 03:42:38;;;;;;;23.35;14.27;;;;;;;4.76;100.00;161812.84;5053918;28;20116;-57
2023/03/29 03:45:04;;;;;;;17.63;15.15;;;;;;;4.78;100.00;161815.56;5051865;28;20559;-57
2023/03/29 03:47:29;;;;;;;16.75;14.90;;;;;;;4.82;100.00;161826.28;5053762;28;20021;-57
2023/03/29 03:49:55;;;;;;;20.17;15.10;;;;;;;4.84;100.00;161831.69;5059061;28;20430;-57
2023/03/29 03:52:20;;;;;;;15.43;11.50;;;;;;;4.80;100.00;161822.25;5072756;28;20094;-57
2023/03/29 03:54:47;;;;;;;35.45;14.43;;;;;;;4.80;100.00;161820.94;5071176;28;20600;-57
2023/03/29 03:57:13;;;;;;;15.70;13.07;;;;;;;4.82;100.00;161826.28;5073571;28;20036;-57
2023/03/29 03:59:38;;;;;;;14.55;12.88;;;;;;;4.76;100.00;161812.84;5070838;28;20377;-57
2023/03/29 04:02:04;;;;;;;21.40;16.15;;;;;;;4.71;100.00;161799.41;5072720;28;20035;-57
2023/03/29 04:04:30;;;;;;;15.93;12.57;;;;;;;4.66;100.00;161785.94;5071565;28;20499;-57
2023/03/29 04:07:01;;;;;;;19.52;13.07;;;;;;;4.66;100.00;161785.94;5072786;28;20028;-57
2023/03/29 04:09:28;;;;;;;17.15;14.20;;;;;;;4.64;100.00;161779.22;5071856;28;20027;-58
2023/03/29 04:11:53;;;;;;;18.00;13.88;;;;;;;4.62;100.00;161775.22;5073112;28;20034;-57
2023/03/29 04:14:19;;;;;;;19.02;15.30;;;;;;;4.63;100.00;161777.91;5071463;28;20016;-57
2023/03/29 04:16:44;;;;;;;16.65;14.32;;;;;;;4.67;100.00;161787.31;5073145;28;20028;-60
2023/03/29 04:19:10;;;;;;;26.20;15.52;;;;;;;4.66;100.00;161785.94;5071613;28;20041;-60
2023/03/29 04:21:36;;;;;;;20.95;13.40;;;;;;;4.68;100.00;161791.34;5072755;28;20020;-57
2023/03/29 04:24:01;;;;;;;23.38;14.25;;;;;;;4.67;100.00;161787.31;5072913;28;20020;-58
2023/03/29 04:26:26;;;;;;;21.08;14.95;;;;;;;4.66;100.00;161785.94;5071593;28;20082;-57
2023/03/29 04:28:52;;;;;;;23.52;13.80;;;;;;;4.66;100.00;161785.94;5072324;28;20035;-58
2023/03/29 04:31:17;;;;;;;20.60;13.88;;;;;;;4.69;100.00;161794.03;5071271;28;20051;-58
2023/03/29 04:33:45;;;;;;;18.65;13.07;;;;;;;4.68;100.00;161791.34;5073003;28;20460;-57
2023/03/29 04:36:12;;;;;;;15.15;9.52;;;;;;;4.70;100.00;161796.72;5071039;28;20047;-57
2023/03/29 04:38:40;;;;;;;20.20;12.20;;;;;;;4.73;100.00;161804.75;5072960;28;20031;-57
2023/03/29 04:41:07;;;;;;;21.23;16.08;;;;;;;4.73;100.00;161804.75;5069995;28;20040;-58
2023/03/29 04:43:33;;;;;;;14.40;12.00;;;;;;;4.72;100.00;161802.13;5072313;28;20028;-57
2023/03/29 04:45:58;;;;;;;16.63;12.48;;;;;;;4.54;100.00;161753.69;5071038;28;20044;-57
2023/03/29 04:48:24;;;;;;;14.45;12.77;;;;;;;4.71;100.00;161798.06;5072821;28;20040;-58
2023/03/29 04:50:50;;;;;;;16.90;12.07;;;;;;;4.81;100.00;161823.59;5061433;28;20040;-59
2023/03/29 04:53:15;;;;;;;19.13;14.15;;;;;;;4.77;100.00;161814.19;5066587;28;20433;-57
2023/03/29 04:55:41;;;;;;;26.35;15.20;;;;;;;4.79;100.00;161818.25;5071049;28;20612;-58
2023/03/29 04:58:06;;;;;;;15.20;11.82;;;;;;;4.78;100.00;161815.56;5071986;28;20017;-58
2023/03/29 05:00:32;;;;;;;13.18;11.88;;;;;;;4.79;100.00;161818.25;5069637;28;20561;-58
2023/03/29 05:02:57;;;;;;;17.77;13.15;;;;;;;4.76;100.00;161812.84;5072041;28;20077;-58
2023/03/29 05:05:23;;;;;;;30.73;14.25;;;;;;;4.79;100.00;161819.56;5070541;28;20041;-58
2023/03/29 05:07:48;;;;;;;18.40;12.55;;;;;;;4.84;100.00;161833.00;5072177;28;20157;-58
2023/03/29 05:10:14;;;;;;;15.50;12.13;;;;;;;4.86;100.00;161837.06;5070741;28;20040;-58
2023/03/29 05:12:39;;;;;;;14.02;11.88;;;;;;;4.79;100.00;161818.25;5071783;28;20439;-58
2023/03/29 05:15:05;;;;;;;23.00;14.27;;;;;;;4.83;100.00;161830.34;5070403;28;20036;-58
2023/03/29 05:17:31;;;;;;;18.30;11.88;;;;;;;4.88;100.00;161843.78;5072062;28;20027;-58
2023/03/29 05:19:56;;;;;;;16.55;11.32;;;;;;;4.87;100.00;161839.78;5069798;28;20044;-58
2023/03/29 05:22:22;;;;;;;14.85;11.60;;;;;;;4.89;100.00;161845.09;5071969;28;20031;-58
2023/03/29 05:24:49;;;;;;;16.95;13.63;;;;;;;4.88;100.00;161842.41;5070491;28;20036;-58
2023/03/29 05:27:15;;;;;;;17.15;11.75;;;;;;;4.90;100.00;161849.19;5071615;28;20032;-58
2023/03/29 05:29:42;;;;;;;19.33;11.15;;;;;;;4.98;100.00;161868.00;5070348;28;20063;-58
2023/03/29 05:32:08;;;;;;;16.67;12.73;;;;;;;4.98;100.00;161868.00;5071514;28;20364;-58
2023/03/29 05:34:33;;;;;;;17.33;12.50;;;;;;;4.98;100.00;161869.31;5069784;28;20048;-57
2023/03/29 05:37:00;;;;;;;20.77;11.90;;;;;;;5.00;100.00;161874.72;5071600;28;20065;-58
2023/03/29 05:39:25;;;;;;;13.95;12.32;;;;;;;5.02;100.00;161880.13;5070382;28;20028;-58
2023/03/29 05:41:51;;;;;;;14.55;11.57;;;;;;;5.04;100.00;161884.13;5070571;28;20036;-59
2023/03/29 05:44:17;;;;;;;17.35;12.77;;;;;;;5.04;100.00;161885.47;5070207;28;20031;-60
2023/03/29 05:46:42;;;;;;;12.95;11.05;;;;;;;5.05;100.00;161888.16;5070169;28;20028;-60
2023/03/29 05:49:08;;;;;;;15.05;11.85;;;;;;;5.06;100.00;161890.84;5069664;28;20024;-58
2023/03/29 05:51:34;;;;;;;14.50;11.18;;;;;;;5.14;100.00;161911.00;5068957;28;20569;-58
2023/03/29 05:54:00;;;;;;;14.50;11.30;;;;;;;5.11;100.00;161902.97;5070871;28;20112;-57
2023/03/29 05:56:26;;;;;;;13.45;9.90;;;;;;;5.19;100.00;161923.13;5069115;28;20515;-58
2023/03/29 05:58:53;;;;;;;18.60;12.45;;;;;;;5.18;100.00;161921.78;5068913;28;20082;-58
2023/03/29 06:01:18;;;;;;;18.33;12.15;;;;;;;5.06;100.00;161889.53;5069514;28;20048;-58
2023/03/29 06:03:45;;;;;;;20.38;11.10;;;;;;;5.25;100.00;161939.25;5070665;28;20050;-58
2023/03/29 06:06:14;;;;;;;16.20;11.50;;;;;;;5.34;100.00;161963.47;5069820;28;20407;-58
2023/03/29 06:08:39;;;;;;;15.67;9.63;;;;;;;5.34;100.00;161962.16;5071110;28;20047;-58
2023/03/29 06:11:07;;;;;;;12.48;11.07;;;;;;;5.39;100.00;161976.97;5068872;28;20458;-58
2023/03/29 06:13:33;;;;;;;10.48;9.38;;;;;;;5.45;100.00;161990.41;5071220;28;20040;-60
2023/03/29 06:15:58;;;;;;;20.65;11.50;;;;;;;5.42;100.00;161982.31;5069375;28;20044;-58
2023/03/29 06:18:24;;;;;;;18.20;12.43;;;;;;;5.48;100.00;161999.81;5052652;28;20734;-57
2023/03/29 06:20:51;;;;;;;10.57;9.45;;;;;;;5.51;100.00;162007.84;5049413;28;20044;-58
2023/03/29 06:23:20;;;;;;;12.82;9.32;;;;;;;5.56;100.00;162019.97;5051128;28;20024;-58
2023/03/29 06:25:46;;;;;;;11.77;8.38;;;;;;;5.49;100.00;162001.13;5049114;28;20049;-58
2023/03/29 06:28:13;;;;;;;19.80;11.23;;;;;;;5.66;100.00;162045.56;5050822;28;20357;-60
2023/03/29 06:30:38;;;;;;;12.60;9.77;;;;;;;5.72;100.00;162061.72;5052534;28;20036;-58
2023/03/29 06:33:07;;;;;;;15.48;9.55;;;;;;;5.71;100.00;162060.34;5067036;28;20097;-58
2023/03/29 06:35:36;;;;;;;11.85;7.72;;;;;;;5.76;100.00;162071.13;5069140;28;20423;-58
2023/03/29 06:38:02;;;;;;;14.80;8.93;;;;;;;5.79;100.00;162079.16;5070073;28;20024;-58
2023/03/29 06:40:29;;;;;;;13.43;9.48;;;;;;;5.86;100.00;162099.38;5068618;28;20045;-58
2023/03/29 06:42:58;;;;;;;11.90;7.15;;;;;;;5.95;100.00;162122.25;5070235;28;20016;-58
2023/03/29 06:45:29;;;;;;;11.55;7.72;;;;;;;6.02;100.00;162139.81;5069135;28;20098;-58
2023/03/29 06:47:55;;;;;;;12.73;9.00;;;;;;;6.01;100.00;162138.44;5069913;28;20031;-57
2023/03/29 06:50:22;;;;;;;8.30;7.50;;;;;;;6.10;100.00;162159.97;5068896;28;20036;-58
2023/03/29 06:52:47;;;;;;;20.20;9.57;;;;;;;6.05;100.00;162146.53;5070217;28;20024;-58
2023/03/29 06:55:13;;;;;;;14.60;8.13;;;;;;;6.13;100.00;162169.38;5068432;28;20048;-58
2023/03/29 06:57:39;;;;;;;11.18;7.35;;;;;;;6.23;100.00;162194.94;5070705;28;20081;-58
2023/03/29 07:00:13;;;;;;;11.00;7.70;;;;;;;6.30;100.00;162212.47;5068723;28;20049;-58
2023/03/29 07:02:39;;;;;;;9.77;7.00;;;;;;;6.37;100.00;162230.00;5069776;28;20020;-58
2023/03/29 07:05:10;;;;;;;11.45;7.50;;;;;;;6.41;100.00;162242.06;5071704;28;20499;-58
2023/03/29 07:07:42;;;;;;;11.38;8.30;;;;;;;6.34;100.00;162224.59;5059147;28;20035;-58
2023/03/29 07:10:08;;;;;;;9.93;7.47;;;;;;;6.50;100.00;162264.97;5071905;28;20045;-59
2023/03/29 07:12:33;;;;;;;10.85;7.40;;;;;;;6.60;100.00;162291.88;5067395;28;20388;-59
2023/03/29 07:14:59;;;;;;;8.93;7.20;;;;;;;6.69;100.00;162313.44;5062993;28;20037;-58
2023/03/29 07:17:24;;;;;;;11.93;8.02;;;;;;;6.72;100.00;162321.53;5069277;28;20391;-59
2023/03/29 07:19:50;;;;;;;7.38;6.60;;;;;;;6.74;100.00;162326.94;5054965;28;20045;-59
2023/03/29 07:22:15;;;;;;;12.70;7.18;;;;;;;6.75;100.00;162329.56;5054113;28;20040;-59
2023/03/29 07:24:40;;;;;;;9.82;6.85;;;;;;;6.85;100.00;162356.53;5057078;28;20127;-59
2023/03/29 07:27:07;;;;;;;13.45;7.68;;;;;;;6.92;100.00;162375.38;5073469;28;20025;-59
2023/03/29 07:29:33;;;;;;;9.18;6.57;;;;;;;6.96;100.00;162386.13;5071371;28;20407;-59
2023/03/29 07:31:59;;;;;;;12.05;6.90;;;;;;;6.97;100.00;162388.81;5073671;28;20033;-58
2023/03/29 07:34:24;;;;;;;9.40;6.75;;;;;;;6.92;100.00;162375.38;5072172;28;20475;-58
2023/03/29 07:36:50;;;;;;;8.18;6.20;;;;;;;6.84;100.00;162353.81;5073968;28;20013;-59
2023/03/29 07:39:15;;;;;;;16.85;7.65;;;;;;;7.04;100.00;162404.97;5072437;28;20111;-58
2023/03/29 07:41:41;;;;;;;11.02;7.90;;;;;;;7.14;100.00;162431.94;5073298;28;20020;-59
2023/03/29 07:44:08;;;;;;;10.60;7.93;;;;;;;7.24;100.00;162458.88;5073410;28;20016;-59
2023/03/29 07:46:35;;;;;;;10.20;7.05;;;;;;;7.36;100.00;162488.50;5072297;28;20094;-59
2023/03/29 07:49:02;;;;;;;10.98;7.30;;;;;;;7.48;100.00;162520.84;5073030;28;20030;-59
2023/03/29 07:51:28;;;;;;;8.00;6.95;;;;;;;7.69;100.00;162574.72;5072086;28;20040;-58
2023/03/29 07:53:53;;;;;;;15.57;7.88;;;;;;;7.78;100.00;162599.00;5070720;28;20031;-59
2023/03/29 07:56:19;;;;;;;7.82;6.45;;;;;;;7.99;100.00;162652.88;5070810;28;20044;-59
2023/03/29 07:58:45;;;;;;;7.85;5.97;;;;;;;8.11;100.00;162685.19;5064966;28;20028;-59
2023/03/29 08:01:14;;;;;;;7.18;6.47;;;;;;;8.20;100.00;162709.47;5051963;28;20040;-59
2023/03/29 08:03:39;;;;;;;;;;;;;;;8.20;100.00;162709.47;5053306;28;20051;-59
2023/03/29 08:06:05;;;;;;;7.53;6.00;;;;;;;8.05;100.00;162669.03;5048865;28;19917;-59
2023/03/29 08:08:30;;;;;;;11.52;6.88;;;;;;;8.12;100.00;162687.91;5039789;28;20021;-59
2023/03/29 08:10:56;;;;;;;7.72;6.65;;;;;;;8.19;100.00;162706.78;5065777;28;20044;-59
2023/03/29 08:13:21;;;;;;;9.25;6.70;;;;;;;8.23;100.00;162717.53;5073483;28;20028;-58
2023/03/29 08:15:47;;;;;;;10.63;7.13;;;;;;;8.23;100.00;162717.53;5071480;28;20044;-59
2023/03/29 08:18:13;;;;;;;11.75;7.47;;;;;;;8.32;100.00;162739.09;5072749;28;20024;-59
2023/03/29 08:20:38;;;;;;;8.77;7.07;;;;;;;8.43;100.00;162768.78;5071687;28;20139;-59
2023/03/29 08:23:04;;;;;;;7.65;5.75;;;;;;;8.35;100.00;162747.22;5072928;28;20020;-59
2023/03/29 08:25:30;;;;;;;10.80;6.72;;;;;;;8.28;100.00;162729.66;5071126;28;20136;-59
2023/03/29 08:27:56;;;;;;;9.07;7.07;;;;;;;8.20;100.00;162709.47;5072745;28;20107;-58
2023/03/29 08:30:22;;;;;;;7.05;5.90;;;;;;;8.12;100.00;162687.91;5071532;28;20550;-58
2023/03/29 08:32:47;;;;;;;12.68;7.03;;;;;;;7.94;100.00;162642.06;5072201;28;20094;-58
2023/03/29 08:35:12;;;;;;;7.70;6.95;;;;;;;7.86;100.00;162620.50;5071495;28;20048;-58
2023/03/29 08:37:38;;;;;;;23.08;6.55;;;;;;;7.85;100.00;162616.47;5057122;28;20071;-58
2023/03/29 08:40:04;;;;;;;11.45;6.63;;;;;;;7.97;100.00;162648.81;5067186;28;20281;-58
2023/03/29 08:42:46;;;;;;;12.80;9.63;;;;;;;8.16;100.00;162697.34;5060247;28;20059;-58
2023/03/29 08:45:52;;;;;;;7.63;6.45;;;;;;;8.32;100.00;162740.47;5063944;28;20475;-58
2023/03/29 08:48:17;;;;;;;12.27;6.55;;;;;;;8.40;100.00;162760.69;5055849;28;20104;-58
2023/03/29 08:50:48;;;;;;;9.73;7.32;;;;;;;8.37;100.00;162752.63;5063911;28;20124;-58
2023/03/29 08:53:36;;;;;;;7.95;6.30;;;;;;;8.36;100.00;162749.91;5063934;28;20476;-58
2023/03/29 08:56:06;;;;;;;;;;;;;;;8.36;100.00;162751.25;5053376;28;20523;-58
2023/03/29 08:58:34;;;;;;;23.77;7.30;;;;;;;8.35;100.00;162747.22;5052805;28;19909;-58
2023/03/29 09:01:03;;;;;;;8.88;6.53;;;;;;;8.45;100.00;162774.13;5050480;28;20150;-58
2023/03/29 09:03:38;;;;;;;8.05;5.75;;;;;;;8.59;100.00;162809.28;5052402;28;20036;-58
2023/03/29 09:06:05;;;;;;;12.07;7.93;;;;;;;8.75;100.00;162852.38;5066489;28;20055;-58
2023/03/29 09:08:33;;;;;;;16.40;6.70;;;;;;;8.91;100.00;162892.81;5071846;28;20024;-58
2023/03/29 09:11:05;;;;;;;11.80;5.55;;;;;;;9.03;100.00;162926.56;5070464;28;20427;-58
2023/03/29 09:14:04;;;;;;;9.95;6.07;;;;;;;9.09;100.00;162941.41;5072133;28;20486;-58
2023/03/29 09:16:42;;;;;;;12.32;6.88;;;;;;;9.18;100.00;162964.31;5055914;28;20041;-58
2023/03/29 09:19:19;;;;;;;14.20;7.70;;;;;;;9.38;100.00;163016.91;5071306;28;20043;-58
2023/03/29 09:21:55;;;;;;;5.65;5.10;;;;;;;9.57;100.00;163065.50;5070362;28;20048;-59
2023/03/29 09:24:37;;;;;;;7.90;5.47;;;;;;;9.66;100.00;163089.75;5053862;28;20028;-58
2023/03/29 09:27:14;;;;;;;11.82;6.70;;;;;;;9.49;100.00;163046.56;5070802;28;20021;-58
2023/03/29 09:29:40;;;;;;;10.05;7.53;;;;;;;9.42;100.00;163026.34;5070343;28;20041;-58
2023/03/29 09:32:16;;;;;;;10.00;7.35;;;;;;;9.37;100.00;163014.22;5071163;28;20103;-58
2023/03/29 09:35:06;;;;;;;10.70;7.53;;;;;;;9.27;100.00;162987.28;5070148;28;20048;-58
2023/03/29 09:37:35;;;;;;;10.25;8.13;;;;;;;9.15;100.00;162957.56;5057703;28;20112;-58
2023/03/29 09:40:03;;;;;;;11.18;7.78;;;;;;;9.12;100.00;162949.47;5065949;28;20043;-58
2023/03/29 09:42:30;;;;;;;10.90;6.05;;;;;;;9.15;100.00;162957.56;5059913;28;20094;-58
2023/03/29 09:45:04;;;;;;;15.75;7.72;;;;;;;9.08;100.00;162938.69;5059053;28;20037;-58
2023/03/29 09:47:48;;;;;;;9.73;7.25;;;;;;;8.98;100.00;162911.72;5071201;28;20382;-58
2023/03/29 09:50:21;;;;;;;12.23;7.50;;;;;;;9.03;100.00;162925.22;5050290;28;20549;-59
2023/03/29 09:52:48;;;;;;;12.85;8.90;;;;;;;9.05;100.00;162930.59;5050741;28;20017;-58
2023/03/29 09:55:16;;;;;;;7.57;6.70;;;;;;;9.06;100.00;162933.28;5058548;28;20553;-58
2023/03/29 09:57:42;;;;;;;9.33;8.17;;;;;;;9.09;100.00;162941.41;5071230;28;20031;-58
2023/03/29 10:00:09;;;;;;;18.67;7.57;;;;;;;9.24;100.00;162979.16;5069427;28;20293;-58
2023/03/29 10:02:35;;;;;;;15.95;7.40;;;;;;;9.75;100.00;163112.72;5071225;28;20498;-58
2023/03/29 10:05:04;;;;;;;9.13;6.60;;;;;;;10.41;100.00;163286.81;5069458;28;20045;-58
2023/03/29 10:07:38;;;;;;;12.13;5.97;;;;;;;10.73;100.00;163370.50;5070278;28;20016;-58
2023/03/29 10:10:09;;;;;;;8.13;6.97;;;;;;;10.67;100.00;163352.94;5069260;28;20051;-58
2023/03/29 10:12:34;;;;;;;7.30;6.57;;;;;;;10.74;100.00;163373.22;5071236;28;20698;-59
2023/03/29 10:15:00;;;;;;;7.82;6.80;;;;;;;10.63;100.00;163343.50;5068807;28;20078;-58
2023/03/29 10:17:28;;;;;;;9.30;7.55;;;;;;;10.62;100.00;163342.16;5071130;28;20383;-58
2023/03/29 10:20:00;;;;;;;9.75;7.85;;;;;;;10.53;100.00;163316.53;5063543;28;20129;-58
2023/03/29 10:22:31;;;;;;;8.82;7.03;;;;;;;10.54;100.00;163319.19;5050740;28;20115;-59
2023/03/29 10:24:57;;;;;;;9.35;7.00;;;;;;;10.42;100.00;163289.50;5049554;28;20041;-58
2023/03/29 10:27:25;;;;;;;8.23;7.43;;;;;;;10.47;100.00;163301.66;5050527;28;20488;-58
2023/03/29 10:29:53;;;;;;;11.43;7.88;;;;;;;10.40;100.00;163284.09;5049014;28;20128;-58
2023/03/29 10:32:21;;;;;;;11.18;7.68;;;;;;;10.28;100.00;163253.00;5050257;28;20031;-58
2023/03/29 10:34:49;;;;;;;11.85;6.97;;;;;;;10.07;100.00;163196.31;5052125;28;20036;-58
2023/03/29 10:37:18;;;;;;;15.48;8.18;;;;;;;9.88;100.00;163146.41;5061240;28;20357;-58
2023/03/29 10:39:44;;;;;;;11.98;8.65;;;;;;;9.79;100.00;163124.81;5067472;28;20040;-59
2023/03/29 10:42:14;;;;;;;11.63;9.25;;;;;;;9.92;100.00;163157.22;5070663;28;20028;-58
2023/03/29 10:44:40;;;;;;;13.15;10.05;;;;;;;9.84;100.00;163138.34;5069112;28;20032;-58
2023/03/29 10:47:15;;;;;;;10.13;8.68;;;;;;;10.11;100.00;163208.47;5070647;28;20036;-58
2023/03/29 10:49:45;;;;;;;14.40;9.15;;;;;;;10.35;100.00;163269.25;5069233;28;20069;-58
2023/03/29 10:52:13;;;;;;;12.52;8.65;;;;;;;10.41;100.00;163286.81;5070309;28;20032;-58
2023/03/29 10:54:39;;;;;;;11.95;10.00;;;;;;;10.37;100.00;163276.03;5069235;28;20040;-58
2023/03/29 10:57:09;;;;;;;15.77;10.23;;;;;;;10.31;100.00;163261.13;5070696;28;20039;-58
2023/03/29 10:59:48;;;;;;;17.58;10.05;;;;;;;10.47;100.00;163303.00;5068961;28;20410;-58
2023/03/29 11:02:13;;;;;;;16.00;11.05;;;;;;;10.54;100.00;163319.19;5070852;28;20024;-59
2023/03/29 11:04:55;;;;;;;9.85;8.85;;;;;;;10.75;100.00;163375.91;5069166;28;20116;-58
2023/03/29 11:07:33;;;;;;;11.93;7.97;;;;;;;11.01;100.00;163442.06;5070444;28;20035;-58
2023/03/29 11:10:10;;;;;;;19.48;10.32;;;;;;;11.15;100.00;163478.47;5069002;28;20132;-58
2023/03/29 11:12:57;;;;;;;17.77;10.63;;;;;;;11.07;100.00;163459.59;5070695;28;20028;-58
2023/03/29 11:15:41;;;;;;;11.27;7.85;;;;;;;11.08;100.00;163462.28;5068638;28;20043;-58
2023/03/29 11:18:37;;;;;;;10.35;8.32;;;;;;;11.00;100.00;163439.34;5070558;28;20025;-58
2023/03/29 11:21:16;;;;;;;9.43;7.95;;;;;;;11.19;100.00;163490.63;5068870;28;20044;-58
2023/03/29 11:23:56;;;;;;;12.75;7.90;;;;;;;11.50;100.00;163570.34;5070018;28;20074;-58